CheckWX is a tool to help pilots better visualize weather data.  It is not intended as a substitute for an official pre-flight weather briefing.

07:25:39 UTC

KSLG METAR
Smith Field Airport
Siloam Springs, Arkansas, USA
Current

30 mins ago

KSLG 210656Z AUTO 07007KT 10SM -RA FEW018 SCT040 BKN055 17/16 A2981 RMK AO2 LTG DSNT NW-E TSB08E23 SLP086 P0011 T01720161
Observed
May-21 @ 06:56 UTC
Wind
  • 070° at 7 KTS
Visibility
10 SM
Flight Rules
VFR
Conditions
Light Rain
Cloud Levels
  • Few at 1,800' AGL
  • Scattered at 4,000' AGL
  • Broken at 5,500' AGL
Temperature
17°C / 63°F
Dewpoint
16°C / 61°F
Humidity
94%
Altimeter
29.81" Hg
Pressure
1009.52 hPa
Current Rain
0.11"
Previous

57 mins ago

KSLG 210629Z AUTO 04005KT 6SM +RA BR FEW027 BKN045 OVC060 17/16 A2983 RMK AO2 LTG DSNT NE AND NW TSB08E23 P0005
Observed
May-21 @ 06:29 UTC
Wind
  • 040° at 5 KTS
Visibility
6 SM
Flight Rules
VFR
Conditions
Heavy Rain, Mist
Cloud Levels
  • Few at 2,700' AGL
  • Broken at 4,500' AGL
  • Overcast at 6,000' AGL
Temperature
17°C / 63°F
Dewpoint
16°C / 61°F
Humidity
94%
Altimeter
29.83" Hg
Pressure
1010.12 hPa
Current Rain
0.05"
Previous

1 hour ago

KSLG 210614Z AUTO 04008KT 7SM +TSRA FEW029 BKN040 OVC060 17/16 A2982 RMK AO2 LTG DSNT NE AND E AND W TSB08 P0003
Observed
May-21 @ 06:14 UTC
Wind
  • 040° at 8 KTS
Visibility
7 SM
Flight Rules
VFR
Conditions
Heavy Thunderstorm, Heavy Rain
Cloud Levels
  • Few at 2,900' AGL
  • Broken at 4,000' AGL
  • Overcast at 6,000' AGL
Temperature
17°C / 63°F
Dewpoint
16°C / 61°F
Humidity
94%
Altimeter
29.82" Hg
Pressure
1009.82 hPa
Current Rain
0.03"